X  Sluiten METAR luchtvaart weer gegevens      EHAM Amsterdam Airport Schiphol
Temperatuur
16°C Temperatuur
10°C Dauwpunt
68% Vochtigheid



Wind
32 KM/U
20 MPH
9 M/S
17 KTS



270°
West
Huidig weer

Wat bewolking Wat bewolking
Luchtdruk 1006.92 (hPa) - 29.73 (inHg)
Zicht 6.2 (mijl) - 10 (km)
Vliegveld
Vliegveld code EHAM

Locatie : Amsterdam Airport Schiphol
Afstand: 2 (km)

Metar:
EHAM 011525Z 27017KT 230V290 9999 FEW028TCU 16/10 Q1007 NOSIG

Tijd: 01-10-2022 17:25 CEST